createdAt,value
2019-03-26T00:02:12.320Z,88.16
2019-03-26T00:05:24.150Z,88.29
2019-03-26T00:08:37.203Z,88.17
2019-03-26T00:16:23.070Z,88.34
2019-03-26T00:23:36.878Z,88.79
2019-03-26T00:26:48.838Z,88.93
2019-03-26T00:29:56.427Z,89.02
2019-03-26T00:33:04.393Z,89.15
2019-03-26T00:36:12.998Z,89.09
2019-03-26T00:39:34.793Z,89.34
2019-03-26T00:43:01.676Z,89.44
2019-03-26T00:46:07.082Z,89.62
2019-03-26T00:49:52.403Z,89.67
2019-03-26T00:57:31.524Z,89.83
2019-03-26T01:00:47.328Z,89.78
2019-03-26T01:03:55.227Z,89.91
2019-03-26T01:11:55.963Z,90.11
2019-03-26T01:27:15.465Z,90.66
2019-03-26T01:31:14.805Z,90.77
2019-03-26T01:39:13.331Z,91.03
2019-03-26T01:46:19.710Z,91.50
2019-03-26T01:49:39.853Z,91.80
2019-03-26T01:53:26.777Z,91.87
2019-03-26T01:56:35.045Z,91.98
2019-03-26T02:00:37.803Z,91.81
2019-03-26T02:04:07.186Z,91.79
2019-03-26T02:39:17.798Z,89.70
2019-03-26T02:43:06.669Z,89.55
2019-03-26T03:02:07.067Z,88.93
2019-03-26T03:09:51.396Z,89.30
2019-03-26T03:17:27.992Z,88.62
2019-03-26T03:21:09.016Z,87.49
2019-03-26T03:24:21.792Z,87.07
2019-03-26T03:27:43.330Z,86.53
2019-03-26T03:30:53.911Z,85.64
2019-03-26T03:37:59.350Z,85.57
2019-03-26T03:41:14.009Z,85.78
2019-03-26T03:44:31.936Z,86.45
2019-03-26T03:47:39.266Z,86.45
2019-03-26T03:50:45.978Z,86.46
2019-03-26T03:53:51.005Z,86.47
2019-03-26T03:56:57.480Z,87.09
2019-03-26T04:00:05.735Z,88.22
2019-03-26T04:03:11.203Z,88.44
2019-03-26T04:06:16.018Z,88.46
2019-03-26T04:09:20.837Z,88.46
2019-03-26T04:12:25.680Z,88.69
2019-03-26T04:15:34.497Z,88.84
2019-03-26T04:18:37.063Z,88.86
2019-03-26T04:21:41.890Z,88.04
2019-03-26T04:24:46.823Z,88.02
2019-03-26T04:27:51.754Z,88.72
2019-03-26T04:30:56.576Z,89.40
2019-03-26T04:34:01.529Z,90.32
2019-03-26T04:37:06.450Z,90.31
2019-03-26T04:40:11.376Z,89.97
2019-03-26T04:43:18.965Z,90.43
2019-03-26T04:46:22.942Z,91.05
2019-03-26T04:49:27.755Z,91.51
2019-03-26T04:52:32.584Z,91.47
2019-03-26T04:55:37.414Z,91.19
2019-03-26T04:58:44.004Z,91.12
2019-03-26T05:01:49.066Z,90.87
2019-03-26T05:04:53.868Z,90.90
2019-03-26T05:07:58.702Z,90.70
2019-03-26T05:11:03.540Z,90.48
2019-03-26T05:14:08.558Z,90.26
2019-03-26T05:17:13.506Z,90.15
2019-03-26T05:20:18.446Z,89.98
2019-03-26T05:23:23.273Z,89.79
2019-03-26T05:26:28.124Z,89.47
2019-03-26T05:29:32.960Z,89.65
2019-03-26T05:32:38.158Z,89.00
2019-03-26T05:35:43.155Z,88.49
2019-03-26T05:38:47.998Z,88.60
2019-03-26T05:41:52.814Z,88.91
2019-03-26T05:44:59.176Z,88.84
2019-03-26T05:48:04.002Z,88.61
2019-03-26T05:51:09.140Z,88.53
2019-03-26T05:54:13.964Z,87.84
2019-03-26T05:57:18.786Z,87.87
2019-03-26T06:00:25.796Z,87.13
2019-03-26T06:03:30.810Z,86.84
2019-03-26T06:06:35.647Z,86.81
2019-03-26T06:09:40.524Z,86.79
2019-03-26T06:12:45.376Z,86.63
2019-03-26T06:15:50.304Z,86.34
2019-03-26T06:18:55.138Z,86.33
2019-03-26T06:21:59.981Z,86.75
2019-03-26T06:25:05.112Z,86.77
2019-03-26T06:28:09.940Z,86.98
2019-03-26T06:31:17.142Z,86.83
2019-03-26T06:34:22.015Z,86.91
2019-03-26T06:37:28.224Z,87.06
2019-03-26T06:40:35.407Z,86.93
2019-03-26T06:43:40.236Z,86.79
2019-03-26T06:46:45.063Z,86.48
2019-03-26T06:49:51.188Z,86.04
2019-03-26T06:52:56.021Z,85.43
2019-03-26T06:56:00.886Z,86.01
2019-03-26T06:59:05.747Z,84.83
2019-03-26T07:02:11.498Z,83.12
2019-03-26T07:05:19.327Z,83.17
2019-03-26T07:08:24.281Z,83.09
2019-03-26T07:11:29.227Z,83.24
2019-03-26T07:14:34.139Z,81.69
2019-03-26T07:17:39.209Z,80.79
2019-03-26T07:20:44.123Z,80.57
2019-03-26T07:23:49.067Z,78.84
2019-03-26T07:26:53.993Z,78.91
2019-03-26T07:29:58.915Z,79.32
2019-03-26T07:33:03.729Z,78.13
2019-03-26T07:36:10.482Z,75.60
2019-03-26T07:39:15.378Z,74.87
2019-03-26T07:42:20.213Z,74.24
2019-03-26T07:45:25.148Z,71.79
2019-03-26T07:48:30.009Z,72.42
2019-03-26T07:51:37.819Z,72.90
2019-03-26T07:54:42.652Z,73.53
2019-03-26T07:57:47.668Z,72.27
2019-03-26T08:00:52.651Z,72.71
2019-03-26T08:03:57.488Z,72.14
2019-03-26T08:07:02.305Z,71.72
2019-03-26T08:10:07.585Z,71.83
2019-03-26T08:13:12.478Z,71.97
2019-03-26T08:16:17.278Z,72.04
2019-03-26T08:19:22.098Z,70.40
2019-03-26T08:22:27.026Z,70.81
2019-03-26T08:25:33.905Z,70.75
2019-03-26T08:28:38.519Z,70.62
2019-03-26T08:31:43.327Z,70.04
2019-03-26T08:34:48.169Z,69.61
2019-03-26T08:37:53.253Z,70.28
2019-03-26T08:40:58.199Z,70.39
2019-03-26T08:44:03.123Z,70.06
2019-03-26T08:47:08.047Z,69.12
2019-03-26T08:50:13.071Z,69.35
2019-03-26T08:53:18.042Z,69.06
2019-03-26T08:56:22.868Z,69.51
2019-03-26T08:59:27.883Z,68.94
2019-03-26T09:02:32.806Z,68.70
2019-03-26T09:05:37.666Z,68.03
2019-03-26T09:08:42.596Z,67.78
2019-03-26T09:11:47.527Z,67.58
2019-03-26T09:14:52.968Z,67.44
2019-03-26T09:17:57.854Z,66.82
2019-03-26T09:21:04.121Z,66.95
2019-03-26T09:24:11.007Z,67.54
2019-03-26T09:27:15.920Z,67.36
2019-03-26T09:30:20.834Z,67.61
2019-03-26T09:33:25.775Z,68.06
2019-03-26T09:36:33.382Z,69.02
2019-03-26T09:39:38.545Z,68.39
2019-03-26T09:42:43.530Z,68.30
2019-03-26T09:45:48.549Z,67.62
2019-03-26T09:48:53.380Z,66.73
2019-03-26T09:51:58.630Z,66.77
2019-03-26T09:55:10.045Z,67.00
2019-03-26T09:58:37.175Z,65.89
2019-03-26T10:01:52.751Z,64.70
2019-03-26T10:08:52.204Z,64.01
2019-03-26T10:11:53.306Z,64.10
2019-03-26T10:14:59.741Z,64.76
2019-03-26T10:18:27.745Z,64.99
2019-03-26T10:21:33.218Z,65.39
2019-03-26T10:24:40.061Z,65.55
2019-03-26T10:28:07.435Z,65.06
2019-03-26T10:31:15.649Z,64.07
2019-03-26T10:34:40.145Z,66.17
2019-03-26T10:37:50.423Z,67.22
2019-03-26T10:40:55.662Z,65.64
2019-03-26T10:44:22.989Z,66.06
2019-03-26T10:47:28.418Z,65.61
2019-03-26T10:50:33.820Z,67.95
2019-03-26T10:53:52.139Z,69.11
2019-03-26T10:57:00.377Z,67.81
2019-03-26T11:00:06.644Z,67.46
2019-03-26T11:03:11.731Z,67.28
2019-03-26T11:06:16.872Z,65.38
2019-03-26T11:09:32.902Z,62.98
2019-03-26T11:16:08.747Z,63.03
2019-03-26T11:19:14.108Z,63.86
2019-03-26T11:22:19.291Z,64.13
2019-03-26T11:25:24.510Z,63.30
2019-03-26T11:28:59.611Z,62.81
2019-03-26T11:32:06.551Z,63.45
2019-03-26T11:35:24.561Z,64.80
2019-03-26T11:38:33.340Z,64.41
2019-03-26T11:44:51.286Z,64.81
2019-03-26T11:45:57.276Z,64.33
2019-03-26T11:54:58.690Z,64.39
2019-03-26T11:58:04.685Z,61.85
2019-03-26T12:04:48.096Z,64.89
2019-03-26T12:07:53.209Z,66.11
2019-03-26T12:10:58.474Z,67.11
2019-03-26T12:14:37.762Z,65.77
2019-03-26T12:17:43.537Z,66.64
2019-03-26T12:20:55.737Z,67.27
2019-03-26T12:24:36.460Z,68.22
2019-03-26T12:28:05.753Z,66.89
2019-03-26T12:34:54.436Z,67.34
2019-03-26T12:38:13.906Z,67.70
2019-03-26T12:41:51.073Z,69.80
2019-03-26T12:44:56.716Z,71.05
2019-03-26T12:48:11.402Z,73.64
2019-03-26T12:51:20.822Z,74.78
2019-03-26T12:54:27.917Z,76.32
2019-03-26T12:57:44.612Z,75.68
2019-03-26T13:01:13.540Z,75.19
2019-03-26T13:04:21.462Z,73.85
2019-03-26T13:07:29.951Z,73.56
2019-03-26T13:10:38.064Z,73.90
2019-03-26T13:13:51.820Z,72.46
2019-03-26T13:17:25.492Z,71.64
2019-03-26T13:20:31.195Z,70.65
2019-03-26T13:27:39.091Z,73.31
2019-03-26T13:31:02.040Z,72.53
2019-03-26T13:34:14.949Z,71.58
2019-03-26T13:37:33.007Z,71.71
2019-03-26T13:40:47.927Z,72.07
2019-03-26T13:43:56.921Z,71.80
2019-03-26T13:47:30.050Z,73.01
2019-03-26T13:50:35.543Z,73.40
2019-03-26T13:53:59.994Z,75.10
2019-03-26T13:57:07.602Z,75.73
2019-03-26T14:00:17.392Z,76.32
2019-03-26T14:03:27.609Z,77.15
2019-03-26T14:06:32.797Z,76.09
2019-03-26T14:09:38.630Z,75.14
2019-03-26T14:12:45.993Z,74.44
2019-03-26T14:15:51.446Z,74.46
2019-03-26T14:19:06.077Z,74.58
2019-03-26T14:22:15.146Z,73.99
2019-03-26T14:25:28.211Z,73.12
2019-03-26T14:28:34.045Z,73.33
2019-03-26T14:31:38.991Z,74.63
2019-03-26T14:34:51.495Z,74.91
2019-03-26T14:37:54.788Z,75.09
2019-03-26T14:41:00.349Z,75.33
2019-03-26T14:44:18.541Z,74.88
2019-03-26T14:47:25.091Z,73.67
2019-03-26T14:50:38.417Z,73.71
2019-03-26T14:54:03.058Z,74.67
2019-03-26T14:57:08.490Z,74.40
2019-03-26T15:00:18.167Z,74.49
2019-03-26T15:03:26.951Z,75.44
2019-03-26T15:06:33.203Z,75.65
2019-03-26T15:09:38.482Z,76.00
2019-03-26T15:12:44.500Z,75.71
2019-03-26T15:16:04.509Z,75.29
2019-03-26T15:19:31.541Z,74.61
2019-03-26T15:22:39.572Z,75.16
2019-03-26T15:25:46.807Z,75.38
2019-03-26T15:28:56.555Z,75.01
2019-03-26T15:32:06.736Z,74.01
2019-03-26T15:35:14.962Z,74.27
2019-03-26T15:38:27.762Z,73.87
2019-03-26T15:41:33.086Z,73.73
2019-03-26T15:44:38.277Z,74.33
2019-03-26T15:47:44.382Z,74.56
2019-03-26T15:50:58.678Z,73.67
2019-03-26T15:54:04.251Z,74.37
2019-03-26T15:57:12.565Z,75.15
2019-03-26T16:00:20.832Z,76.24
2019-03-26T16:03:32.357Z,76.84
2019-03-26T16:06:37.704Z,77.53
2019-03-26T16:09:48.922Z,78.10
2019-03-26T16:13:00.053Z,77.86
2019-03-26T16:19:32.125Z,78.52
2019-03-26T16:23:01.546Z,78.79
2019-03-26T16:26:36.032Z,78.53
2019-03-26T16:30:11.619Z,78.93
2019-03-26T16:36:59.999Z,81.42
2019-03-26T16:40:36.565Z,82.56
2019-03-26T16:47:18.814Z,83.97
2019-03-26T16:50:31.349Z,84.41
2019-03-26T16:53:36.878Z,84.61
2019-03-26T16:56:52.334Z,85.83
2019-03-26T17:05:02.443Z,88.63
2019-03-26T17:12:11.633Z,90.06
2019-03-26T17:15:20.507Z,90.67
2019-03-26T17:18:26.106Z,90.58
2019-03-26T17:21:44.122Z,90.59
2019-03-26T17:24:55.201Z,90.80
2019-03-26T17:28:01.093Z,89.84
2019-03-26T17:31:06.785Z,89.76
2019-03-26T17:34:34.410Z,89.84
2019-03-26T17:37:59.070Z,90.36
2019-03-26T17:40:55.531Z,90.58
2019-03-26T17:44:20.719Z,90.74
2019-03-26T17:51:10.977Z,90.04
2019-03-26T17:51:16.938Z,90.38
2019-03-26T17:54:19.771Z,90.41
2019-03-26T17:57:25.412Z,90.61
2019-03-26T18:00:43.296Z,90.58
2019-03-26T18:03:56.151Z,90.26
2019-03-26T18:07:01.630Z,90.54
2019-03-26T18:10:09.015Z,90.63
2019-03-26T18:13:14.720Z,90.93
2019-03-26T18:16:20.311Z,90.96
2019-03-26T18:19:40.665Z,91.81
2019-03-26T18:22:46.781Z,92.09
2019-03-26T18:29:41.815Z,93.03
2019-03-26T18:53:20.587Z,94.79
2019-03-26T19:04:40.036Z,94.56
2019-03-26T19:07:48.765Z,94.09
2019-03-26T19:10:58.075Z,93.81
2019-03-26T19:14:05.740Z,93.64
2019-03-26T19:17:23.544Z,93.43
2019-03-26T19:20:33.572Z,93.57
2019-03-26T19:24:30.046Z,93.21
2019-03-26T19:28:06.659Z,93.25
2019-03-26T19:31:24.150Z,93.10
2019-03-26T19:35:08.665Z,93.14
2019-03-26T19:42:28.705Z,92.97
2019-03-26T19:46:13.949Z,93.05
2019-03-26T19:50:02.199Z,93.03
2019-03-26T19:56:58.425Z,92.67
2019-03-26T20:00:14.589Z,92.66
2019-03-26T20:03:22.848Z,92.39
2019-03-26T20:07:41.739Z,92.45
2019-03-26T20:10:11.999Z,92.08
2019-03-26T20:13:35.432Z,92.01
2019-03-26T20:16:50.833Z,92.09
2019-03-26T20:20:20.331Z,92.20
2019-03-26T20:23:25.703Z,92.03
2019-03-26T20:26:42.235Z,92.35
2019-03-26T20:30:06.930Z,92.62
2019-03-26T20:33:12.606Z,92.62
2019-03-26T20:48:25.900Z,92.86
2019-03-26T20:51:36.749Z,92.79
2019-03-26T20:55:53.439Z,92.87
2019-03-26T20:59:23.360Z,93.15
2019-03-26T21:10:37.870Z,93.44
2019-03-26T21:13:50.882Z,92.94
2019-03-26T21:17:06.951Z,92.83
2019-03-26T21:20:20.690Z,92.65
2019-03-26T21:27:42.931Z,92.56
2019-03-26T21:31:14.613Z,92.74
2019-03-26T21:34:30.287Z,92.85
2019-03-26T21:38:24.251Z,92.84
2019-03-26T21:45:43.879Z,93.07
2019-03-26T21:48:58.225Z,93.07
2019-03-26T21:56:06.546Z,92.97
2019-03-26T21:59:02.920Z,93.00
2019-03-26T22:02:07.758Z,93.06
2019-03-26T22:05:12.730Z,93.04
2019-03-26T22:08:17.556Z,92.95
2019-03-26T22:11:22.406Z,92.81
2019-03-26T22:14:27.364Z,92.79
2019-03-26T22:17:32.300Z,92.90
2019-03-26T22:20:37.189Z,93.01
2019-03-26T22:23:42.039Z,92.99
2019-03-26T22:26:46.872Z,93.06
2019-03-26T22:29:51.702Z,93.07
2019-03-26T22:32:58.275Z,93.10
2019-03-26T22:36:03.109Z,93.02
2019-03-26T22:39:08.670Z,93.28
2019-03-26T22:42:13.523Z,93.42
2019-03-26T22:45:20.736Z,93.57
2019-03-26T22:48:25.589Z,93.63
2019-03-26T22:51:30.420Z,93.72
2019-03-26T22:54:35.294Z,93.81
2019-03-26T22:57:40.228Z,93.82
2019-03-26T23:00:45.233Z,93.98
2019-03-26T23:03:50.149Z,94.13
2019-03-26T23:06:55.112Z,94.06
2019-03-26T23:10:00.400Z,94.01
2019-03-26T23:13:08.375Z,93.96
2019-03-26T23:16:13.999Z,93.98
2019-03-26T23:19:19.074Z,94.09
2019-03-26T23:22:24.258Z,94.07
2019-03-26T23:25:29.333Z,94.14
2019-03-26T23:28:34.299Z,94.23
2019-03-26T23:31:39.174Z,94.29
2019-03-26T23:34:47.413Z,94.30
2019-03-26T23:37:52.281Z,94.29
2019-03-26T23:40:57.104Z,94.23
2019-03-26T23:44:01.916Z,94.07
2019-03-26T23:47:06.763Z,94.04
2019-03-26T23:50:11.825Z,94.12
2019-03-26T23:53:16.727Z,94.13
2019-03-26T23:56:21.599Z,94.14
2019-03-26T23:59:26.559Z,94.00
